.
WxDataArchive / Data Records for 2009-01-08
2009-01-07 January 2009 2009-01-09

Data Records for Thursday, 08 January 2009

Time	Temp	Chill	HIndex	Humid	Dewpt	 Wind 	HiWind	WindDir	Rain 	Barom 
-----	----	-----	------	-----	-----	------	------	-------	-----	----- 
00:00	20.5	14.8	20.5	75	13.9	4	6	270	0.00	29.528 
00:05	20.5	13.6	20.5	74	13.6	5	11	270	0.00	29.530 
00:10	20.3	14.6	20.3	74	13.4	4	7	270	0.00	29.532 
00:15	20.3	20.3	20.3	74	13.4	3	6	270	0.00	29.533 
00:20	20.2	20.2	20.2	74	13.3	3	10	270	0.00	29.538 
00:25	19.9	12.9	19.9	73	12.7	5	11	270	0.00	29.540 
00:30	19.7	11.6	19.7	72	12.2	6	10	270	0.00	29.542 
00:35	19.5	12.4	19.5	72	12.0	5	13	270	0.00	29.540 
00:40	19.4	13.5	19.4	73	12.2	4	7	270	0.00	29.542 
00:45	19.4	19.4	19.4	73	12.2	3	6	270	0.00	29.543 
00:50	19.2	13.3	19.2	74	12.3	4	7	270	0.00	29.542 
00:55	19.2	19.2	19.2	74	12.3	3	6	270	0.00	29.547 
01:00	19.2	13.3	19.2	74	12.3	4	6	270	0.00	29.546 
01:05	19.2	19.2	19.2	75	12.6	3	6	270	0.00	29.544 
01:10	19.2	19.2	19.2	75	12.6	2	5	248	0.00	29.546 
01:15	19.2	19.2	19.2	75	12.6	2	5	270	0.00	29.549 
01:20	19.2	19.2	19.2	76	12.9	2	5	270	0.00	29.550 
01:25	19.1	19.1	19.1	76	12.8	2	4	270	0.00	29.551 
01:30	19.1	19.1	19.1	76	12.8	2	4	270	0.00	29.554 
01:35	19.1	19.1	19.1	76	12.8	2	5	270	0.00	29.554 
01:40	18.9	18.9	18.9	76	12.6	3	6	270	0.00	29.555 
01:45	18.8	18.8	18.8	76	12.5	3	7	270	0.00	29.560 
01:50	18.8	18.8	18.8	76	12.5	3	6	270	0.00	29.565 
01:55	18.4	12.4	18.4	75	11.8	4	9	270	0.00	29.565 
02:00	18.4	18.4	18.4	75	11.8	3	8	270	0.00	29.570 
02:05	18.3	18.3	18.3	74	11.4	3	9	292	0.00	29.573 
02:10	18.1	18.1	18.1	74	11.2	3	5	270	0.00	29.575 
02:15	18.0	11.9	18.0	73	10.8	4	12	270	0.00	29.579 
02:20	17.8	11.7	17.8	73	10.6	4	7	270	0.00	29.580 
02:25	17.7	17.7	17.7	73	10.5	3	6	270	0.00	29.581 
02:30	17.5	17.5	17.5	73	10.3	3	9	270	0.00	29.581 
02:35	17.3	17.3	17.3	73	10.2	3	6	270	0.00	29.584 
02:40	17.0	10.7	17.0	73	9.9	4	9	270	0.00	29.586 
02:45	16.7	10.4	16.7	74	9.9	4	11	270	0.00	29.588 
02:50	16.5	10.2	16.5	74	9.7	4	11	270	0.00	29.593 
02:55	16.5	10.2	16.5	74	9.7	4	10	270	0.00	29.594 
03:00	16.4	16.4	16.4	75	9.9	3	6	270	0.00	29.595 
03:05	16.4	10.1	16.4	76	10.2	4	11	270	0.00	29.599 
03:10	16.2	16.2	16.2	75	9.7	3	7	270	0.00	29.599 
03:15	16.1	16.1	16.1	76	9.9	3	6	270	0.00	29.602 
03:20	16.1	9.7	16.1	76	9.9	4	10	270	0.00	29.603 
03:25	16.1	9.7	16.1	75	9.6	4	10	270	0.00	29.602 
03:30	15.9	15.9	15.9	75	9.4	3	10	270	0.00	29.603 
03:35	15.9	15.9	15.9	76	9.7	3	12	248	0.00	29.604 
03:40	15.9	15.9	15.9	76	9.7	3	9	248	0.00	29.607 
03:45	15.7	15.7	15.7	76	9.5	3	10	270	0.00	29.607 
03:50	15.7	15.7	15.7	76	9.5	3	8	270	0.00	29.608 
03:55	15.6	15.6	15.6	76	9.4	3	7	270	0.00	29.609 
04:00	15.6	9.1	15.6	76	9.4	4	12	270	0.00	29.614 
04:05	15.6	9.1	15.6	76	9.4	4	10	270	0.00	29.615 
04:10	15.4	15.4	15.4	75	8.9	3	7	270	0.00	29.616 
04:15	15.4	15.4	15.4	76	9.2	2	5	270	0.00	29.617 
04:20	15.4	15.4	15.4	76	9.2	2	6	270	0.00	29.617 
04:25	15.2	8.7	15.2	76	9.0	4	12	270	0.00	29.618 
04:30	15.2	15.2	15.2	76	9.0	3	7	270	0.00	29.621 
04:35	15.1	15.1	15.1	76	8.9	3	7	270	0.00	29.623 
04:40	15.1	15.1	15.1	77	9.2	3	5	248	0.00	29.625 
04:45	15.1	8.6	15.1	77	9.2	4	9	270	0.00	29.625 
04:50	14.9	14.9	14.9	77	9.0	3	7	270	0.00	29.628 
04:55	14.8	14.8	14.8	77	8.9	3	9	270	0.00	29.630 
05:00	14.8	14.8	14.8	77	8.9	3	9	270	0.00	29.631 
05:05	14.6	14.6	14.6	77	8.7	3	4	248	0.00	29.635 
05:10	14.6	14.6	14.6	77	8.7	3	6	248	0.00	29.636 
05:15	14.6	8.0	14.6	77	8.7	4	9	270	0.00	29.640 
05:20	14.6	8.0	14.6	77	8.7	4	10	248	0.00	29.644 
05:25	14.6	14.6	14.6	77	8.7	3	7	292	0.00	29.649 
05:30	14.6	14.6	14.6	77	8.7	3	11	270	0.00	29.651 
05:35	14.6	8.0	14.6	77	8.7	4	9	270	0.00	29.652 
05:40	14.6	14.6	14.6	77	8.7	3	5	248	0.00	29.652 
05:45	14.6	14.6	14.6	77	8.7	3	9	270	0.00	29.655 
05:50	14.8	14.8	14.8	77	8.9	3	6	270	0.00	29.658 
05:55	14.6	8.0	14.6	77	8.7	4	11	270	0.00	29.661 
06:00	14.6	14.6	14.6	77	8.7	3	9	270	0.00	29.662 
06:05	14.6	14.6	14.6	77	8.7	3	9	248	0.00	29.665 
06:10	14.6	14.6	14.6	77	8.7	3	7	270	0.00	29.667 
06:15	14.6	8.0	14.6	77	8.7	4	11	270	0.00	29.671 
06:20	14.4	7.7	14.4	77	8.5	4	11	270	0.00	29.674 
06:25	14.4	14.4	14.4	77	8.5	3	9	270	0.00	29.674 
06:30	14.3	7.6	14.3	77	8.4	4	9	270	0.00	29.675 
06:35	14.3	14.3	14.3	77	8.4	3	10	270	0.00	29.676 
06:40	14.3	14.3	14.3	77	8.4	3	7	270	0.00	29.680 
06:45	14.1	14.1	14.1	77	8.2	3	10	270	0.00	29.679 
06:50	14.0	7.3	14.0	77	8.1	4	11	270	0.00	29.682 
06:55	13.8	13.8	13.8	77	7.9	3	10	248	0.00	29.685 
07:00	13.6	13.6	13.6	77	7.8	3	11	270	0.00	29.686 
07:05	13.6	13.6	13.6	78	8.0	2	4	248	0.00	29.689 
07:10	13.8	13.8	13.8	78	8.2	2	6	248	0.00	29.694 
07:15	13.8	13.8	13.8	78	8.2	3	7	270	0.00	29.694 
07:20	14.0	14.0	14.0	78	8.4	2	4	248	0.00	29.697 
07:25	14.0	14.0	14.0	78	8.4	2	7	270	0.00	29.702 
07:30	14.1	14.1	14.1	78	8.5	3	7	270	0.00	29.704 
07:35	14.3	14.3	14.3	79	9.0	1	3	248	0.00	29.712 
07:40	14.3	14.3	14.3	79	9.0	2	5	270	0.00	29.711 
07:45	14.3	14.3	14.3	79	9.0	3	6	270	0.00	29.716 
07:50	14.3	14.3	14.3	79	9.0	2	6	248	0.00	29.719 
07:55	14.3	14.3	14.3	79	9.0	3	9	270	0.00	29.727 
08:00	14.3	14.3	14.3	79	9.0	3	9	270	0.00	29.732 
08:05	14.4	14.4	14.4	79	9.1	3	7	270	0.00	29.735 
08:10	14.4	14.4	14.4	79	9.1	3	6	270	0.00	29.739 
08:15	14.4	14.4	14.4	79	9.1	3	6	292	0.00	29.744 
08:20	14.4	14.4	14.4	79	9.1	3	7	270	0.00	29.748 
08:25	14.4	14.4	14.4	79	9.1	2	7	270	0.00	29.751 
08:30	14.4	14.4	14.4	80	9.4	3	6	270	0.00	29.753 
08:35	14.6	14.6	14.6	80	9.6	3	10	270	0.00	29.756 
08:40	14.4	7.7	14.4	80	9.4	4	10	270	0.00	29.757 
08:45	14.4	14.4	14.4	80	9.4	3	7	270	0.00	29.762 
08:50	14.6	14.6	14.6	80	9.6	3	6	270	0.00	29.763 
08:55	14.6	8.0	14.6	80	9.6	4	10	248	0.00	29.766 
09:00	14.4	14.4	14.4	80	9.4	3	7	270	0.00	29.768 
09:05	14.6	14.6	14.6	80	9.6	3	6	270	0.00	29.773 
09:10	14.6	8.0	14.6	80	9.6	4	10	248	0.00	29.779 
09:15	14.6	8.0	14.6	80	9.6	4	11	270	0.00	29.782 
09:20	14.6	8.0	14.6	80	9.6	4	10	270	0.00	29.782 
09:25	14.6	14.6	14.6	80	9.6	3	6	270	0.00	29.784 
09:30	14.6	14.6	14.6	80	9.6	3	9	270	0.00	29.787 
09:35	14.8	14.8	14.8	80	9.8	3	10	270	0.00	29.786 
09:40	14.8	14.8	14.8	80	9.8	3	9	270	0.00	29.789 
09:45	14.8	14.8	14.8	80	9.8	3	9	270	0.00	29.792 
09:50	14.9	14.9	14.9	80	9.9	3	5	270	0.00	29.794 
09:55	15.1	15.1	15.1	80	10.1	3	13	248	0.00	29.796 
10:00	15.2	15.2	15.2	80	10.2	3	6	270	0.00	29.797 
10:05	15.4	15.4	15.4	80	10.4	3	7	270	0.00	29.800 
10:10	15.6	15.6	15.6	80	10.6	3	10	270	0.00	29.800 
10:15	15.6	15.6	15.6	79	10.3	3	9	270	0.00	29.802 
10:20	15.9	15.9	15.9	80	10.8	2	7	270	0.00	29.806 
10:25	16.1	16.1	16.1	79	10.8	3	9	248	0.00	29.812 
10:30	16.2	16.2	16.2	79	10.9	3	5	270	0.00	29.814 
10:35	16.7	16.7	16.7	80	11.6	3	9	248	0.00	29.814 
10:40	16.7	16.7	16.7	80	11.6	3	7	270	0.00	29.818 
10:45	16.5	16.5	16.5	80	11.4	3	6	270	0.00	29.822 
10:50	16.5	16.5	16.5	81	11.7	3	6	270	0.00	29.824 
10:55	16.7	16.7	16.7	81	11.9	2	4	270	0.00	29.826 
11:00	17.0	17.0	17.0	82	12.5	2	5	270	0.00	29.828 
11:05	17.3	17.3	17.3	81	12.5	2	5	248	0.00	29.829 
11:10	17.3	17.3	17.3	81	12.5	3	7	270	0.00	29.829 
11:15	17.5	17.5	17.5	81	12.7	2	6	248	0.00	29.829 
11:20	17.8	17.8	17.8	81	13.0	3	6	270	0.00	29.832 
11:25	18.0	18.0	18.0	80	12.9	3	7	270	0.00	29.834 
11:30	18.1	18.1	18.1	80	13.0	3	5	270	0.00	29.836 
11:35	18.3	18.3	18.3	80	13.2	3	6	270	0.00	29.838 
11:40	18.4	18.4	18.4	80	13.3	3	6	270	0.00	29.836 
11:45	18.8	18.8	18.8	80	13.7	3	6	270	0.00	29.832 
11:50	18.9	18.9	18.9	80	13.8	3	6	270	0.00	29.837 
11:55	19.1	19.1	19.1	80	14.0	3	10	270	0.00	29.834 
12:00	19.2	19.2	19.2	80	14.1	2	5	270	0.00	29.835 
12:05	19.5	19.5	19.5	80	14.4	3	9	270	0.00	29.839 
12:10	19.5	19.5	19.5	79	14.1	3	6	270	0.00	29.838 
12:15	19.7	19.7	19.7	79	14.3	2	6	270	0.00	29.841 
12:20	19.9	19.9	19.9	79	14.5	3	7	270	0.00	29.841 
12:25	20.0	20.0	20.0	78	14.3	2	7	270	0.00	29.842 
12:30	20.0	20.0	20.0	78	14.3	3	5	270	0.00	29.843 
12:35	20.2	20.2	20.2	78	14.5	3	6	270	0.00	29.844 
12:40	20.5	20.5	20.5	77	14.5	2	9	248	0.00	29.844 
12:45	20.2	20.2	20.2	77	14.2	3	8	270	0.00	29.845 
12:50	20.5	20.5	20.5	78	14.8	2	6	270	0.00	29.849 
12:55	20.5	20.5	20.5	77	14.5	3	6	270	0.00	29.850 
13:00	20.6	20.6	20.6	77	14.6	3	6	270	0.00	29.852 
13:05	20.8	20.8	20.8	77	14.7	2	6	270	0.00	29.855 
13:10	20.8	15.1	20.8	77	14.7	4	10	270	0.00	29.858 
13:15	20.6	14.9	20.6	77	14.6	4	7	270	0.00	29.860 
13:20	20.6	20.6	20.6	77	14.6	3	11	270	0.00	29.862 
13:25	20.8	20.8	20.8	77	14.7	3	11	270	0.00	29.863 
13:30	20.8	15.1	20.8	77	14.7	4	9	270	0.00	29.864 
13:35	21.1	21.1	21.1	77	15.0	3	7	270	0.00	29.869 
13:40	21.3	21.3	21.3	77	15.2	3	6	270	0.00	29.867 
13:45	21.3	21.3	21.3	76	14.9	2	5	270	0.00	29.872 
13:50	21.6	21.6	21.6	77	15.5	2	4	270	0.00	29.870 
13:55	21.4	21.4	21.4	76	15.0	3	6	270	0.00	29.865 
14:00	21.4	21.4	21.4	76	15.0	3	7	270	0.00	29.870 
14:05	21.6	21.6	21.6	76	15.2	3	5	270	0.00	29.873 
14:10	21.8	21.8	21.8	77	15.7	2	5	248	0.00	29.874 
14:15	22.1	22.1	22.1	76	15.7	3	7	248	0.00	29.874 
14:20	22.2	22.2	22.2	76	15.8	2	7	270	0.00	29.875 
14:25	21.9	21.9	21.9	76	15.5	2	7	270	0.00	29.879 
14:30	22.1	22.1	22.1	76	15.7	2	4	248	0.00	29.879 
14:35	22.1	22.1	22.1	76	15.7	3	10	270	0.00	29.881 
14:40	22.2	22.2	22.2	76	15.8	2	7	270	0.00	29.886 
14:45	22.1	22.1	22.1	76	15.7	3	5	270	0.00	29.889 
14:50	21.9	21.9	21.9	76	15.5	3	5	270	0.00	29.891 
14:55	21.8	21.8	21.8	76	15.4	2	5	248	0.00	29.891 
15:00	21.6	21.6	21.6	77	15.5	3	6	270	0.00	29.895 
15:05	21.4	21.4	21.4	77	15.3	3	6	270	0.00	29.896 
15:10	21.6	21.6	21.6	77	15.5	3	7	270	0.00	29.900 
15:15	21.6	21.6	21.6	77	15.5	3	6	270	0.00	29.905 
15:20	21.6	21.6	21.6	77	15.5	3	11	248	0.00	29.907 
15:25	21.6	21.6	21.6	77	15.5	3	7	248	0.00	29.911 
15:30	21.6	21.6	21.6	77	15.5	2	5	270	0.00	29.911 
15:35	21.6	21.6	21.6	78	15.8	3	6	248	0.00	29.912 
15:40	21.6	21.6	21.6	77	15.5	3	9	270	0.00	29.914 
15:45	21.4	21.4	21.4	77	15.3	3	6	270	0.00	29.921 
15:50	21.4	21.4	21.4	77	15.3	2	6	270	0.00	29.921 
15:55	21.4	21.4	21.4	78	15.6	2	5	248	0.00	29.924 
16:00	21.4	21.4	21.4	78	15.6	3	7	270	0.00	29.929 
16:05	21.3	21.3	21.3	78	15.5	3	6	248	0.00	29.936 
16:10	21.4	21.4	21.4	78	15.6	3	7	270	0.00	29.939 
16:15	21.4	21.4	21.4	78	15.6	2	6	248	0.00	29.939 
16:20	21.3	21.3	21.3	78	15.5	2	5	270	0.00	29.940 
16:25	21.3	21.3	21.3	78	15.5	3	6	270	0.00	29.941 
16:30	21.1	21.1	21.1	78	15.3	2	7	270	0.00	29.945 
16:35	21.3	21.3	21.3	79	15.8	2	4	270	0.00	29.950 
16:40	21.1	21.1	21.1	78	15.3	2	7	270	0.00	29.950 
16:45	21.1	21.1	21.1	78	15.3	3	10	248	0.00	29.954 
16:50	21.0	21.0	21.0	78	15.2	2	9	248	0.00	29.954 
16:55	21.0	21.0	21.0	78	15.2	2	5	248	0.00	29.954 
17:00	20.6	20.6	20.6	77	14.6	3	7	270	0.00	29.955 
17:05	20.5	20.5	20.5	77	14.5	2	5	270	0.00	29.959 
17:10	20.5	20.5	20.5	77	14.5	2	5	248	0.00	29.963 
17:15	20.3	20.3	20.3	77	14.3	3	8	248	0.00	29.970 
17:20	20.0	20.0	20.0	77	14.0	2	4	270	0.00	29.967 
17:25	20.0	20.0	20.0	77	14.0	2	4	248	0.00	29.972 
17:30	19.9	19.9	19.9	78	14.2	3	11	248	0.00	29.974 
17:35	19.9	19.9	19.9	78	14.2	1	5	248	0.00	29.979 
17:40	19.7	19.7	19.7	78	14.0	2	4	248	0.00	29.981 
17:45	19.5	13.6	19.5	78	13.8	4	10	270	0.00	29.983 
17:50	19.4	13.5	19.4	77	13.4	4	12	270	0.00	29.984 
17:55	19.2	19.2	19.2	78	13.5	2	5	270	0.00	29.987 
18:00	19.2	19.2	19.2	78	13.5	3	9	270	0.00	29.991 
18:05	19.1	19.1	19.1	79	13.7	1	3	248	0.00	29.995 
18:10	19.1	19.1	19.1	79	13.7	2	5	248	0.00	30.001 
18:15	19.1	19.1	19.1	79	13.7	2	6	270	0.00	30.004 
18:20	19.1	19.1	19.1	79	13.7	2	5	248	0.00	30.005 
18:25	19.1	19.1	19.1	80	14.0	1	6	270	0.00	30.006 
18:30	19.1	19.1	19.1	80	14.0	1	4	270	0.00	30.008 
18:35	19.1	19.1	19.1	80	14.0	3	7	270	0.00	30.008 
18:40	19.1	19.1	19.1	80	14.0	3	10	270	0.00	30.013 
18:45	19.1	19.1	19.1	81	14.2	3	6	248	0.00	30.013 
18:50	19.1	19.1	19.1	81	14.2	2	7	248	0.00	30.015 
18:55	19.1	19.1	19.1	81	14.2	2	4	270	0.00	30.018 
19:00	19.1	19.1	19.1	81	14.2	3	5	270	0.00	30.021 
19:05	19.2	19.2	19.2	81	14.3	3	5	270	0.00	30.023 
19:10	19.2	19.2	19.2	81	14.3	2	4	248	0.00	30.025 
19:15	19.2	19.2	19.2	81	14.3	2	4	248	0.00	30.023 
19:20	19.2	19.2	19.2	82	14.6	1	4	270	0.00	30.024 
19:25	19.2	19.2	19.2	82	14.6	3	7	270	0.00	30.023 
19:30	19.2	19.2	19.2	82	14.6	3	7	248	0.00	30.024 
19:35	19.2	19.2	19.2	82	14.6	2	7	248	0.00	30.026 
19:40	19.4	19.4	19.4	82	14.8	1	3	248	0.00	30.026 
19:45	19.4	19.4	19.4	83	15.1	2	5	270	0.00	30.032 
19:50	19.4	19.4	19.4	83	15.1	2	4	270	0.00	30.033 
19:55	19.4	19.4	19.4	83	15.1	2	5	270	0.00	30.033 
20:00	19.4	19.4	19.4	83	15.1	2	5	270	0.00	30.033 
20:05	19.4	19.4	19.4	83	15.1	2	4	248	0.00	30.032 
20:10	19.2	19.2	19.2	83	14.9	2	6	248	0.00	30.036 
20:15	19.2	19.2	19.2	82	14.6	2	5	270	0.00	30.037 
20:20	19.2	19.2	19.2	82	14.6	2	5	270	0.00	30.038 
20:25	19.4	19.4	19.4	82	14.8	2	6	248	0.00	30.038 
20:30	19.4	19.4	19.4	82	14.8	2	5	248	0.00	30.039 
20:35	19.4	19.4	19.4	82	14.8	2	5	270	0.00	30.039 
20:40	19.5	19.5	19.5	82	14.9	3	6	270	0.00	30.039 
20:45	19.5	19.5	19.5	82	14.9	1	3	292	0.00	30.037 
20:50	19.7	19.7	19.7	82	15.1	2	4	248	0.00	30.040 
20:55	19.7	19.7	19.7	81	14.8	2	4	248	0.00	30.042 
21:00	19.7	13.9	19.7	81	14.8	4	9	270	0.00	30.044 
21:05	19.9	19.9	19.9	81	15.0	2	7	248	0.00	30.047 
21:10	19.9	19.9	19.9	80	14.7	3	7	270	0.00	30.050 
21:15	19.7	19.7	19.7	79	14.3	3	7	270	0.00	30.050 
21:20	19.7	19.7	19.7	79	14.3	2	6	248	0.00	30.051 
21:25	19.5	19.5	19.5	79	14.1	3	7	270	0.00	30.053 
21:30	19.2	19.2	19.2	78	13.5	3	9	270	0.00	30.056 
21:35	19.1	19.1	19.1	78	13.4	1	4	270	0.00	30.057 
21:40	18.8	18.8	18.8	79	13.4	1	5	248	0.00	30.059 
21:45	18.4	18.4	18.4	79	13.0	2	4	248	0.00	30.064 
21:50	18.1	18.1	18.1	79	12.7	1	5	248	0.00	30.068 
21:55	18.0	18.0	18.0	79	12.6	1	3	270	0.00	30.070 
22:00	17.8	17.8	17.8	79	12.4	0	2	248	0.00	30.068 
22:05	17.5	17.5	17.5	80	12.4	1	3	248	0.00	30.066 
22:10	17.3	17.3	17.3	80	12.2	1	3	248	0.00	30.068 
22:15	17.2	17.2	17.2	80	12.1	1	3	248	0.00	30.068 
22:20	17.2	17.2	17.2	80	12.1	1	4	248	0.00	30.068 
22:25	17.0	17.0	17.0	80	11.9	1	2	248	0.00	30.069 
22:30	16.9	16.9	16.9	80	11.8	1	5	248	0.00	30.068 
22:35	16.7	16.7	16.7	80	11.6	0	2	248	0.00	30.068 
22:40	16.5	16.5	16.5	81	11.7	1	3	248	0.00	30.068 
22:45	16.4	16.4	16.4	81	11.6	0	2	248	0.00	30.067 
22:50	16.4	16.4	16.4	81	11.6	1	3	248	0.00	30.069 
22:55	16.2	16.2	16.2	81	11.4	0	2	248	0.00	30.070 
23:00	16.1	16.1	16.1	81	11.3	1	3	248	0.00	30.070 
23:05	16.1	16.1	16.1	81	11.3	1	3	248	0.00	30.069 
23:10	16.1	16.1	16.1	81	11.3	0	1	248	0.00	30.068 
23:15	15.9	15.9	15.9	81	11.1	1	3	248	0.00	30.068 
23:20	15.9	15.9	15.9	82	11.4	0	2	248	0.00	30.065 
23:25	15.7	15.7	15.7	82	11.2	0	2	248	0.00	30.068 
23:30	15.7	15.7	15.7	82	11.2	0	5	248	0.00	30.067 
23:35	15.7	15.7	15.7	82	11.2	1	4	248	0.00	30.067 
23:40	15.7	15.7	15.7	82	11.2	1	3	248	0.00	30.069 
23:45	15.7	15.7	15.7	81	10.9	1	3	248	0.00	30.071 
23:50	15.6	15.6	15.6	81	10.8	0	4	248	0.00	30.076 
23:55	15.6	15.6	15.6	81	10.8	1	5	248	0.00	30.081 

CoCoRaHS
IN-AL-39
A2 Web Hosting
Creative Commons License
GoDaddy
search engine by freefind advanced

loaded 2018-11-12 14:59:43 • last modified 2010-11-18 10:43:29
Privacy PolicyDisclaimer
• wx.awcolley.com is powered by PmWiki v.2002016 •
• all content (unless otherwise noted) © 2018 A W Colley